sensor_id;sensor_type;location;lat;lon;timestamp;P1;durP1;ratioP1;P2;durP2;ratioP2
10633;SDS011;5365;51.640;8.106;2023-11-18T00:02:10;2.30;;;0.90;;
10633;SDS011;5365;51.640;8.106;2023-11-18T00:05:10;0.77;;;0.77;;
10633;SDS011;5365;51.640;8.106;2023-11-18T00:08:11;0.45;;;0.45;;
10633;SDS011;5365;51.640;8.106;2023-11-18T00:11:11;1.95;;;1.52;;
10633;SDS011;5365;51.640;8.106;2023-11-18T00:14:11;2.73;;;0.97;;
10633;SDS011;5365;51.640;8.106;2023-11-18T00:17:13;1.45;;;1.15;;
10633;SDS011;5365;51.640;8.106;2023-11-18T00:20:13;1.23;;;0.47;;
10633;SDS011;5365;51.640;8.106;2023-11-18T00:23:13;1.58;;;0.93;;
10633;SDS011;5365;51.640;8.106;2023-11-18T00:26:13;0.90;;;0.67;;
10633;SDS011;5365;51.640;8.106;2023-11-18T00:29:14;2.25;;;1.05;;
10633;SDS011;5365;51.640;8.106;2023-11-18T00:32:14;1.43;;;1.13;;
10633;SDS011;5365;51.640;8.106;2023-11-18T00:35:14;2.47;;;1.35;;
10633;SDS011;5365;51.640;8.106;2023-11-18T00:38:15;0.40;;;0.37;;
10633;SDS011;5365;51.640;8.106;2023-11-18T00:41:15;1.67;;;1.33;;
10633;SDS011;5365;51.640;8.106;2023-11-18T00:44:17;1.13;;;1.00;;
10633;SDS011;5365;51.640;8.106;2023-11-18T00:47:18;1.60;;;1.20;;
10633;SDS011;5365;51.640;8.106;2023-11-18T00:50:18;1.50;;;0.73;;
10633;SDS011;5365;51.640;8.106;2023-11-18T00:53:18;2.43;;;2.23;;
10633;SDS011;5365;51.640;8.106;2023-11-18T00:56:19;5.07;;;2.03;;
10633;SDS011;5365;51.640;8.106;2023-11-18T00:59:21;2.25;;;1.52;;
10633;SDS011;5365;51.640;8.106;2023-11-18T01:02:21;3.73;;;0.90;;
10633;SDS011;5365;51.640;8.106;2023-11-18T01:05:22;2.00;;;0.85;;
10633;SDS011;5365;51.640;8.106;2023-11-18T01:08:22;1.07;;;0.93;;
10633;SDS011;5365;51.640;8.106;2023-11-18T01:11:23;3.10;;;0.93;;
10633;SDS011;5365;51.640;8.106;2023-11-18T01:14:24;5.10;;;1.85;;
10633;SDS011;5365;51.640;8.106;2023-11-18T01:17:24;1.47;;;1.37;;
10633;SDS011;5365;51.640;8.106;2023-11-18T01:20:24;0.33;;;0.30;;
10633;SDS011;5365;51.640;8.106;2023-11-18T01:23:24;1.10;;;1.00;;
10633;SDS011;5365;51.640;8.106;2023-11-18T01:26:24;2.60;;;1.20;;
10633;SDS011;5365;51.640;8.106;2023-11-18T01:29:25;1.13;;;1.07;;
10633;SDS011;5365;51.640;8.106;2023-11-18T01:32:25;2.80;;;1.42;;
10633;SDS011;5365;51.640;8.106;2023-11-18T01:35:29;0.80;;;0.70;;
10633;SDS011;5365;51.640;8.106;2023-11-18T01:38:29;1.23;;;1.08;;
10633;SDS011;5365;51.640;8.106;2023-11-18T01:41:30;1.20;;;0.73;;
10633;SDS011;5365;51.640;8.106;2023-11-18T01:44:32;0.22;;;0.22;;
10633;SDS011;5365;51.640;8.106;2023-11-18T01:47:35;0.75;;;0.75;;
10633;SDS011;5365;51.640;8.106;2023-11-18T01:50:36;0.40;;;0.30;;
10633;SDS011;5365;51.640;8.106;2023-11-18T01:53:37;0.20;;;0.10;;
10633;SDS011;5365;51.640;8.106;2023-11-18T01:56:39;1.02;;;0.35;;
10633;SDS011;5365;51.640;8.106;2023-11-18T01:59:40;1.57;;;0.83;;
10633;SDS011;5365;51.640;8.106;2023-11-18T02:02:40;0.57;;;0.33;;
10633;SDS011;5365;51.640;8.106;2023-11-18T02:05:40;1.45;;;1.35;;
10633;SDS011;5365;51.640;8.106;2023-11-18T02:08:42;0.65;;;0.65;;
10633;SDS011;5365;51.640;8.106;2023-11-18T02:14:50;1.13;;;0.88;;
10633;SDS011;5365;51.640;8.106;2023-11-18T02:17:50;0.95;;;0.75;;
10633;SDS011;5365;51.640;8.106;2023-11-18T02:20:53;2.85;;;1.20;;
10633;SDS011;5365;51.640;8.106;2023-11-18T02:23:54;0.88;;;0.63;;
10633;SDS011;5365;51.640;8.106;2023-11-18T02:26:56;1.73;;;0.57;;
10633;SDS011;5365;51.640;8.106;2023-11-18T02:29:56;2.08;;;1.90;;
10633;SDS011;5365;51.640;8.106;2023-11-18T02:36:00;5.50;;;0.77;;
10633;SDS011;5365;51.640;8.106;2023-11-18T02:39:06;0.77;;;0.68;;
10633;SDS011;5365;51.640;8.106;2023-11-18T02:42:08;0.63;;;0.57;;
10633;SDS011;5365;51.640;8.106;2023-11-18T02:45:10;1.77;;;1.30;;
10633;SDS011;5365;51.640;8.106;2023-11-18T02:48:12;1.90;;;1.75;;
10633;SDS011;5365;51.640;8.106;2023-11-18T02:51:15;0.95;;;0.88;;
10633;SDS011;5365;51.640;8.106;2023-11-18T02:54:16;3.22;;;1.88;;
10633;SDS011;5365;51.640;8.106;2023-11-18T02:57:16;0.40;;;0.30;;
10633;SDS011;5365;51.640;8.106;2023-11-18T03:00:17;1.45;;;1.15;;
10633;SDS011;5365;51.640;8.106;2023-11-18T03:03:21;1.73;;;1.05;;
10633;SDS011;5365;51.640;8.106;2023-11-18T03:06:21;1.27;;;1.07;;
10633;SDS011;5365;51.640;8.106;2023-11-18T03:09:21;0.88;;;0.57;;
10633;SDS011;5365;51.640;8.106;2023-11-18T03:12:22;0.63;;;0.63;;
10633;SDS011;5365;51.640;8.106;2023-11-18T03:15:22;1.40;;;0.77;;
10633;SDS011;5365;51.640;8.106;2023-11-18T03:18:22;0.73;;;0.60;;
10633;SDS011;5365;51.640;8.106;2023-11-18T03:21:22;3.60;;;0.57;;
10633;SDS011;5365;51.640;8.106;2023-11-18T03:24:23;0.93;;;0.93;;
10633;SDS011;5365;51.640;8.106;2023-11-18T03:27:23;1.30;;;0.70;;
10633;SDS011;5365;51.640;8.106;2023-11-18T03:30:23;0.43;;;0.43;;
10633;SDS011;5365;51.640;8.106;2023-11-18T03:33:24;0.90;;;0.73;;
10633;SDS011;5365;51.640;8.106;2023-11-18T03:36:24;0.20;;;0.20;;
10633;SDS011;5365;51.640;8.106;2023-11-18T03:39:24;0.60;;;0.60;;
10633;SDS011;5365;51.640;8.106;2023-11-18T03:42:25;0.80;;;0.63;;
10633;SDS011;5365;51.640;8.106;2023-11-18T03:45:25;0.40;;;0.27;;
10633;SDS011;5365;51.640;8.106;2023-11-18T03:48:25;0.57;;;0.43;;
10633;SDS011;5365;51.640;8.106;2023-11-18T03:51:25;3.13;;;0.57;;
10633;SDS011;5365;51.640;8.106;2023-11-18T03:54:26;1.43;;;1.00;;
10633;SDS011;5365;51.640;8.106;2023-11-18T03:57:26;0.77;;;0.40;;
10633;SDS011;5365;51.640;8.106;2023-11-18T04:00:26;1.60;;;1.03;;
10633;SDS011;5365;51.640;8.106;2023-11-18T04:03:29;0.13;;;0.13;;
10633;SDS011;5365;51.640;8.106;2023-11-18T04:06:29;1.27;;;0.87;;
10633;SDS011;5365;51.640;8.106;2023-11-18T04:09:30;0.83;;;0.47;;
10633;SDS011;5365;51.640;8.106;2023-11-18T04:12:30;0.05;;;0.05;;
10633;SDS011;5365;51.640;8.106;2023-11-18T04:15:30;1.47;;;1.37;;
10633;SDS011;5365;51.640;8.106;2023-11-18T04:18:31;0.35;;;0.35;;
10633;SDS011;5365;51.640;8.106;2023-11-18T04:21:31;2.07;;;0.57;;
10633;SDS011;5365;51.640;8.106;2023-11-18T04:24:32;0.40;;;0.40;;
10633;SDS011;5365;51.640;8.106;2023-11-18T04:27:32;0.23;;;0.20;;
10633;SDS011;5365;51.640;8.106;2023-11-18T04:30:32;1.30;;;1.02;;
10633;SDS011;5365;51.640;8.106;2023-11-18T04:33:33;0.43;;;0.40;;
10633;SDS011;5365;51.640;8.106;2023-11-18T04:36:33;1.88;;;1.77;;
10633;SDS011;5365;51.640;8.106;2023-11-18T04:39:33;0.27;;;0.27;;
10633;SDS011;5365;51.640;8.106;2023-11-18T04:42:33;0.80;;;0.53;;
10633;SDS011;5365;51.640;8.106;2023-11-18T04:45:33;0.77;;;0.30;;
10633;SDS011;5365;51.640;8.106;2023-11-18T04:48:34;1.40;;;0.32;;
10633;SDS011;5365;51.640;8.106;2023-11-18T04:51:34;0.40;;;0.40;;
10633;SDS011;5365;51.640;8.106;2023-11-18T04:54:35;0.60;;;0.47;;
10633;SDS011;5365;51.640;8.106;2023-11-18T04:57:35;0.73;;;0.43;;
10633;SDS011;5365;51.640;8.106;2023-11-18T05:00:36;0.77;;;0.77;;
10633;SDS011;5365;51.640;8.106;2023-11-18T05:03:38;0.75;;;0.75;;
10633;SDS011;5365;51.640;8.106;2023-11-18T05:06:38;2.03;;;0.43;;
10633;SDS011;5365;51.640;8.106;2023-11-18T05:09:38;0.87;;;0.63;;
10633;SDS011;5365;51.640;8.106;2023-11-18T05:12:39;0.57;;;0.53;;
10633;SDS011;5365;51.640;8.106;2023-11-18T05:15:39;2.70;;;0.40;;
10633;SDS011;5365;51.640;8.106;2023-11-18T05:18:40;4.07;;;2.73;;
10633;SDS011;5365;51.640;8.106;2023-11-18T05:21:40;1.02;;;0.88;;
10633;SDS011;5365;51.640;8.106;2023-11-18T05:24:41;1.83;;;0.60;;
10633;SDS011;5365;51.640;8.106;2023-11-18T05:27:41;1.93;;;1.83;;
10633;SDS011;5365;51.640;8.106;2023-11-18T05:30:41;0.30;;;0.30;;
10633;SDS011;5365;51.640;8.106;2023-11-18T05:33:44;0.52;;;0.52;;
10633;SDS011;5365;51.640;8.106;2023-11-18T05:36:44;1.45;;;0.45;;
10633;SDS011;5365;51.640;8.106;2023-11-18T05:39:46;0.65;;;0.60;;
10633;SDS011;5365;51.640;8.106;2023-11-18T05:42:49;0.45;;;0.45;;
10633;SDS011;5365;51.640;8.106;2023-11-18T05:45:51;0.50;;;0.50;;
10633;SDS011;5365;51.640;8.106;2023-11-18T05:49:10;1.27;;;0.75;;
10633;SDS011;5365;51.640;8.106;2023-11-18T05:52:11;0.20;;;0.20;;
10633;SDS011;5365;51.640;8.106;2023-11-18T05:55:11;1.20;;;0.75;;
10633;SDS011;5365;51.640;8.106;2023-11-18T05:58:12;0.20;;;0.20;;
10633;SDS011;5365;51.640;8.106;2023-11-18T06:01:13;0.73;;;0.73;;
10633;SDS011;5365;51.640;8.106;2023-11-18T06:04:14;0.68;;;0.65;;
10633;SDS011;5365;51.640;8.106;2023-11-18T06:07:14;1.00;;;0.60;;
10633;SDS011;5365;51.640;8.106;2023-11-18T06:10:14;1.30;;;0.80;;
10633;SDS011;5365;51.640;8.106;2023-11-18T06:13:15;0.67;;;0.67;;
10633;SDS011;5365;51.640;8.106;2023-11-18T06:16:20;1.27;;;0.75;;
10633;SDS011;5365;51.640;8.106;2023-11-18T06:19:20;0.77;;;0.35;;
10633;SDS011;5365;51.640;8.106;2023-11-18T06:22:21;4.53;;;1.33;;
10633;SDS011;5365;51.640;8.106;2023-11-18T06:25:21;1.13;;;0.88;;
10633;SDS011;5365;51.640;8.106;2023-11-18T06:28:22;1.75;;;1.00;;
10633;SDS011;5365;51.640;8.106;2023-11-18T06:31:23;0.57;;;0.57;;
10633;SDS011;5365;51.640;8.106;2023-11-18T06:34:23;0.70;;;0.70;;
10633;SDS011;5365;51.640;8.106;2023-11-18T06:37:24;0.60;;;0.50;;
10633;SDS011;5365;51.640;8.106;2023-11-18T06:40:24;4.40;;;1.08;;
10633;SDS011;5365;51.640;8.106;2023-11-18T06:43:27;2.90;;;1.65;;
10633;SDS011;5365;51.640;8.106;2023-11-18T06:46:35;1.00;;;0.70;;
10633;SDS011;5365;51.640;8.106;2023-11-18T06:49:39;1.02;;;1.00;;
10633;SDS011;5365;51.640;8.106;2023-11-18T06:52:41;2.72;;;1.27;;
10633;SDS011;5365;51.640;8.106;2023-11-18T06:55:44;1.38;;;0.68;;
10633;SDS011;5365;51.640;8.106;2023-11-18T06:58:45;2.85;;;0.90;;
10633;SDS011;5365;51.640;8.106;2023-11-18T07:01:45;1.60;;;1.33;;
10633;SDS011;5365;51.640;8.106;2023-11-18T07:04:46;1.27;;;1.13;;
10633;SDS011;5365;51.640;8.106;2023-11-18T07:07:46;4.77;;;1.53;;
10633;SDS011;5365;51.640;8.106;2023-11-18T07:10:46;1.33;;;0.77;;
10633;SDS011;5365;51.640;8.106;2023-11-18T07:13:48;1.35;;;1.25;;
10633;SDS011;5365;51.640;8.106;2023-11-18T07:16:56;3.83;;;1.63;;
10633;SDS011;5365;51.640;8.106;2023-11-18T07:19:56;2.90;;;1.80;;
10633;SDS011;5365;51.640;8.106;2023-11-18T07:22:56;1.67;;;1.17;;
10633;SDS011;5365;51.640;8.106;2023-11-18T07:25:57;1.40;;;0.85;;
10633;SDS011;5365;51.640;8.106;2023-11-18T07:28:58;2.03;;;1.03;;
10633;SDS011;5365;51.640;8.106;2023-11-18T07:31:58;3.50;;;1.27;;
10633;SDS011;5365;51.640;8.106;2023-11-18T07:34:58;1.93;;;1.37;;
10633;SDS011;5365;51.640;8.106;2023-11-18T07:37:58;1.17;;;1.07;;
10633;SDS011;5365;51.640;8.106;2023-11-18T07:40:59;1.52;;;1.30;;
10633;SDS011;5365;51.640;8.106;2023-11-18T07:44:00;3.40;;;1.33;;
10633;SDS011;5365;51.640;8.106;2023-11-18T07:47:00;2.50;;;1.13;;
10633;SDS011;5365;51.640;8.106;2023-11-18T07:50:00;1.40;;;1.13;;
10633;SDS011;5365;51.640;8.106;2023-11-18T07:53:04;2.72;;;1.60;;
10633;SDS011;5365;51.640;8.106;2023-11-18T07:56:06;0.68;;;0.68;;
10633;SDS011;5365;51.640;8.106;2023-11-18T07:59:08;1.60;;;0.80;;
10633;SDS011;5365;51.640;8.106;2023-11-18T08:02:08;2.78;;;1.05;;
10633;SDS011;5365;51.640;8.106;2023-11-18T08:05:09;2.78;;;1.45;;
10633;SDS011;5365;51.640;8.106;2023-11-18T08:08:15;1.95;;;1.85;;
10633;SDS011;5365;51.640;8.106;2023-11-18T08:11:18;2.88;;;2.30;;
10633;SDS011;5365;51.640;8.106;2023-11-18T08:14:18;4.10;;;1.47;;
10633;SDS011;5365;51.640;8.106;2023-11-18T08:17:19;3.40;;;2.23;;
10633;SDS011;5365;51.640;8.106;2023-11-18T08:20:20;1.23;;;0.98;;
10633;SDS011;5365;51.640;8.106;2023-11-18T08:23:24;7.18;;;2.17;;
10633;SDS011;5365;51.640;8.106;2023-11-18T08:26:25;2.88;;;0.95;;
10633;SDS011;5365;51.640;8.106;2023-11-18T08:29:25;3.20;;;1.87;;
10633;SDS011;5365;51.640;8.106;2023-11-18T08:32:31;2.63;;;1.58;;
10633;SDS011;5365;51.640;8.106;2023-11-18T08:35:31;1.52;;;1.40;;
10633;SDS011;5365;51.640;8.106;2023-11-18T08:38:31;2.03;;;0.83;;
10633;SDS011;5365;51.640;8.106;2023-11-18T08:41:31;4.27;;;2.50;;
10633;SDS011;5365;51.640;8.106;2023-11-18T08:44:32;1.47;;;1.23;;
10633;SDS011;5365;51.640;8.106;2023-11-18T08:47:32;1.83;;;1.30;;
10633;SDS011;5365;51.640;8.106;2023-11-18T08:50:32;3.63;;;1.35;;
10633;SDS011;5365;51.640;8.106;2023-11-18T08:53:33;1.13;;;0.82;;
10633;SDS011;5365;51.640;8.106;2023-11-18T08:56:40;2.05;;;1.13;;
10633;SDS011;5365;51.640;8.106;2023-11-18T08:59:42;1.95;;;1.50;;
10633;SDS011;5365;51.640;8.106;2023-11-18T09:02:44;1.52;;;1.25;;
10633;SDS011;5365;51.640;8.106;2023-11-18T09:05:45;2.35;;;1.85;;
10633;SDS011;5365;51.640;8.106;2023-11-18T09:08:56;5.47;;;2.25;;
10633;SDS011;5365;51.640;8.106;2023-11-18T09:11:57;1.08;;;0.93;;
10633;SDS011;5365;51.640;8.106;2023-11-18T09:14:57;1.67;;;1.23;;
10633;SDS011;5365;51.640;8.106;2023-11-18T09:17:58;1.92;;;1.33;;
10633;SDS011;5365;51.640;8.106;2023-11-18T09:20:59;7.60;;;3.10;;
10633;SDS011;5365;51.640;8.106;2023-11-18T09:24:01;2.50;;;2.08;;
10633;SDS011;5365;51.640;8.106;2023-11-18T09:27:07;4.55;;;3.08;;
10633;SDS011;5365;51.640;8.106;2023-11-18T09:30:09;3.97;;;2.13;;
10633;SDS011;5365;51.640;8.106;2023-11-18T09:33:18;3.97;;;2.63;;
10633;SDS011;5365;51.640;8.106;2023-11-18T09:36:25;3.53;;;2.78;;
10633;SDS011;5365;51.640;8.106;2023-11-18T09:39:28;6.10;;;3.05;;
10633;SDS011;5365;51.640;8.106;2023-11-18T09:42:37;2.80;;;1.90;;
10633;SDS011;5365;51.640;8.106;2023-11-18T09:45:38;3.65;;;2.15;;
10633;SDS011;5365;51.640;8.106;2023-11-18T09:48:45;3.87;;;2.50;;
10633;SDS011;5365;51.640;8.106;2023-11-18T09:51:47;5.70;;;2.47;;
10633;SDS011;5365;51.640;8.106;2023-11-18T09:55:03;2.28;;;2.08;;
10633;SDS011;5365;51.640;8.106;2023-11-18T09:58:04;4.22;;;2.35;;
10633;SDS011;5365;51.640;8.106;2023-11-18T10:01:08;2.60;;;2.15;;
10633;SDS011;5365;51.640;8.106;2023-11-18T10:04:13;2.53;;;2.33;;
10633;SDS011;5365;51.640;8.106;2023-11-18T10:07:17;4.03;;;3.67;;
10633;SDS011;5365;51.640;8.106;2023-11-18T10:10:19;4.57;;;2.95;;
10633;SDS011;5365;51.640;8.106;2023-11-18T10:13:24;3.28;;;1.63;;
10633;SDS011;5365;51.640;8.106;2023-11-18T10:16:27;4.23;;;1.47;;
10633;SDS011;5365;51.640;8.106;2023-11-18T10:19:48;4.85;;;2.88;;
10633;SDS011;5365;51.640;8.106;2023-11-18T10:22:49;3.72;;;2.58;;
10633;SDS011;5365;51.640;8.106;2023-11-18T10:25:50;2.17;;;1.98;;
10633;SDS011;5365;51.640;8.106;2023-11-18T10:28:52;3.72;;;2.25;;
10633;SDS011;5365;51.640;8.106;2023-11-18T10:32:01;3.40;;;2.03;;
10633;SDS011;5365;51.640;8.106;2023-11-18T10:35:05;3.10;;;1.23;;
10633;SDS011;5365;51.640;8.106;2023-11-18T10:38:06;1.88;;;1.13;;
10633;SDS011;5365;51.640;8.106;2023-11-18T10:41:07;1.30;;;1.02;;
10633;SDS011;5365;51.640;8.106;2023-11-18T10:44:07;1.95;;;1.35;;
10633;SDS011;5365;51.640;8.106;2023-11-18T10:47:07;3.63;;;1.77;;
10633;SDS011;5365;51.640;8.106;2023-11-18T10:50:14;2.40;;;1.40;;
10633;SDS011;5365;51.640;8.106;2023-11-18T10:53:14;3.23;;;2.50;;
10633;SDS011;5365;51.640;8.106;2023-11-18T10:56:16;2.30;;;1.92;;
10633;SDS011;5365;51.640;8.106;2023-11-18T10:59:16;1.42;;;1.08;;
10633;SDS011;5365;51.640;8.106;2023-11-18T11:02:18;1.88;;;1.05;;
10633;SDS011;5365;51.640;8.106;2023-11-18T11:05:29;2.88;;;0.93;;
10633;SDS011;5365;51.640;8.106;2023-11-18T11:11:39;1.13;;;0.47;;
10633;SDS011;5365;51.640;8.106;2023-11-18T11:14:40;2.83;;;1.15;;
10633;SDS011;5365;51.640;8.106;2023-11-18T11:17:43;2.97;;;1.63;;
10633;SDS011;5365;51.640;8.106;2023-11-18T11:20:56;1.55;;;1.13;;
10633;SDS011;5365;51.640;8.106;2023-11-18T11:24:01;4.10;;;1.60;;
10633;SDS011;5365;51.640;8.106;2023-11-18T11:27:09;6.80;;;2.33;;
10633;SDS011;5365;51.640;8.106;2023-11-18T11:33:23;3.35;;;2.67;;
10633;SDS011;5365;51.640;8.106;2023-11-18T11:36:29;3.78;;;1.45;;
10633;SDS011;5365;51.640;8.106;2023-11-18T11:39:31;3.92;;;1.88;;
10633;SDS011;5365;51.640;8.106;2023-11-18T11:42:36;1.98;;;1.00;;
10633;SDS011;5365;51.640;8.106;2023-11-18T11:45:39;3.45;;;1.48;;
10633;SDS011;5365;51.640;8.106;2023-11-18T11:48:40;2.33;;;1.23;;
10633;SDS011;5365;51.640;8.106;2023-11-18T11:54:52;1.48;;;1.10;;
10633;SDS011;5365;51.640;8.106;2023-11-18T11:57:56;1.90;;;0.82;;
10633;SDS011;5365;51.640;8.106;2023-11-18T12:04:18;1.13;;;1.02;;
10633;SDS011;5365;51.640;8.106;2023-11-18T12:07:21;3.00;;;1.52;;
10633;SDS011;5365;51.640;8.106;2023-11-18T12:10:26;1.25;;;0.47;;
10633;SDS011;5365;51.640;8.106;2023-11-18T12:13:26;3.60;;;0.77;;
10633;SDS011;5365;51.640;8.106;2023-11-18T12:16:56;4.43;;;1.35;;
10633;SDS011;5365;51.640;8.106;2023-11-18T12:19:48;5.25;;;1.40;;
10633;SDS011;5365;51.640;8.106;2023-11-18T12:23:04;2.25;;;1.15;;
10633;SDS011;5365;51.640;8.106;2023-11-18T12:26:37;2.20;;;1.52;;
10633;SDS011;5365;51.640;8.106;2023-11-18T12:29:34;1.00;;;0.60;;
10633;SDS011;5365;51.640;8.106;2023-11-18T12:42:03;3.75;;;1.42;;
10633;SDS011;5365;51.640;8.106;2023-11-18T12:45:27;3.50;;;1.33;;
10633;SDS011;5365;51.640;8.106;2023-11-18T12:48:31;2.28;;;1.45;;
10633;SDS011;5365;51.640;8.106;2023-11-18T12:51:36;2.20;;;1.42;;
10633;SDS011;5365;51.640;8.106;2023-11-18T12:54:37;1.97;;;1.07;;
10633;SDS011;5365;51.640;8.106;2023-11-18T12:57:38;2.30;;;1.38;;
10633;SDS011;5365;51.640;8.106;2023-11-18T13:00:41;1.83;;;0.90;;
10633;SDS011;5365;51.640;8.106;2023-11-18T13:03:42;2.25;;;1.48;;
10633;SDS011;5365;51.640;8.106;2023-11-18T13:06:44;2.83;;;1.23;;
10633;SDS011;5365;51.640;8.106;2023-11-18T13:09:44;1.10;;;0.67;;
10633;SDS011;5365;51.640;8.106;2023-11-18T13:12:45;2.35;;;0.82;;
10633;SDS011;5365;51.640;8.106;2023-11-18T13:15:47;1.42;;;0.75;;
10633;SDS011;5365;51.640;8.106;2023-11-18T13:18:50;0.98;;;0.90;;
10633;SDS011;5365;51.640;8.106;2023-11-18T13:21:51;1.67;;;0.68;;
10633;SDS011;5365;51.640;8.106;2023-11-18T13:24:56;0.68;;;0.43;;
10633;SDS011;5365;51.640;8.106;2023-11-18T13:27:58;1.13;;;0.82;;
10633;SDS011;5365;51.640;8.106;2023-11-18T13:30:58;1.87;;;1.50;;
10633;SDS011;5365;51.640;8.106;2023-11-18T13:33:58;0.90;;;0.57;;
10633;SDS011;5365;51.640;8.106;2023-11-18T13:36:58;1.00;;;0.67;;
10633;SDS011;5365;51.640;8.106;2023-11-18T13:40:00;2.45;;;0.70;;
10633;SDS011;5365;51.640;8.106;2023-11-18T13:43:03;0.53;;;0.30;;
10633;SDS011;5365;51.640;8.106;2023-11-18T13:46:11;0.73;;;0.63;;
10633;SDS011;5365;51.640;8.106;2023-11-18T13:49:13;2.63;;;2.17;;
10633;SDS011;5365;51.640;8.106;2023-11-18T13:52:13;1.75;;;0.63;;
10633;SDS011;5365;51.640;8.106;2023-11-18T13:55:16;1.58;;;0.73;;
10633;SDS011;5365;51.640;8.106;2023-11-18T13:58:17;1.50;;;0.57;;
10633;SDS011;5365;51.640;8.106;2023-11-18T14:01:17;1.57;;;0.83;;
10633;SDS011;5365;51.640;8.106;2023-11-18T14:04:17;1.00;;;0.70;;
10633;SDS011;5365;51.640;8.106;2023-11-18T14:07:18;0.60;;;0.43;;
10633;SDS011;5365;51.640;8.106;2023-11-18T14:10:18;0.40;;;0.37;;
10633;SDS011;5365;51.640;8.106;2023-11-18T14:13:19;0.73;;;0.47;;
10633;SDS011;5365;51.640;8.106;2023-11-18T14:16:19;0.87;;;0.50;;
10633;SDS011;5365;51.640;8.106;2023-11-18T14:19:24;1.52;;;0.73;;
10633;SDS011;5365;51.640;8.106;2023-11-18T14:22:30;0.50;;;0.50;;
10633;SDS011;5365;51.640;8.106;2023-11-18T14:25:31;0.57;;;0.32;;
10633;SDS011;5365;51.640;8.106;2023-11-18T14:28:39;1.70;;;0.75;;
10633;SDS011;5365;51.640;8.106;2023-11-18T14:31:39;1.27;;;1.15;;
10633;SDS011;5365;51.640;8.106;2023-11-18T14:34:39;1.63;;;0.67;;
10633;SDS011;5365;51.640;8.106;2023-11-18T14:37:42;2.63;;;1.08;;
10633;SDS011;5365;51.640;8.106;2023-11-18T14:40:48;2.13;;;1.35;;
10633;SDS011;5365;51.640;8.106;2023-11-18T14:43:48;2.83;;;1.88;;
10633;SDS011;5365;51.640;8.106;2023-11-18T14:46:48;5.37;;;0.77;;
10633;SDS011;5365;51.640;8.106;2023-11-18T14:49:48;0.63;;;0.47;;
10633;SDS011;5365;51.640;8.106;2023-11-18T14:52:50;1.20;;;0.60;;
10633;SDS011;5365;51.640;8.106;2023-11-18T14:55:59;2.88;;;0.88;;
10633;SDS011;5365;51.640;8.106;2023-11-18T14:59:00;1.35;;;0.85;;
10633;SDS011;5365;51.640;8.106;2023-11-18T15:02:00;1.20;;;0.90;;
10633;SDS011;5365;51.640;8.106;2023-11-18T15:05:00;1.47;;;0.83;;
10633;SDS011;5365;51.640;8.106;2023-11-18T15:08:03;1.88;;;0.90;;
10633;SDS011;5365;51.640;8.106;2023-11-18T15:11:06;1.52;;;0.88;;
10633;SDS011;5365;51.640;8.106;2023-11-18T15:14:07;1.63;;;0.55;;
10633;SDS011;5365;51.640;8.106;2023-11-18T15:17:07;1.92;;;1.17;;
10633;SDS011;5365;51.640;8.106;2023-11-18T15:20:07;0.50;;;0.50;;
10633;SDS011;5365;51.640;8.106;2023-11-18T15:23:10;0.88;;;0.63;;
10633;SDS011;5365;51.640;8.106;2023-11-18T15:26:10;1.58;;;0.88;;
10633;SDS011;5365;51.640;8.106;2023-11-18T15:29:10;0.90;;;0.63;;
10633;SDS011;5365;51.640;8.106;2023-11-18T15:32:16;1.17;;;0.57;;
10633;SDS011;5365;51.640;8.106;2023-11-18T15:35:16;2.10;;;0.50;;
10633;SDS011;5365;51.640;8.106;2023-11-18T15:38:17;1.17;;;0.47;;
10633;SDS011;5365;51.640;8.106;2023-11-18T15:41:17;0.43;;;0.10;;
10633;SDS011;5365;51.640;8.106;2023-11-18T15:44:20;0.80;;;0.32;;
10633;SDS011;5365;51.640;8.106;2023-11-18T15:47:20;1.98;;;1.02;;
10633;SDS011;5365;51.640;8.106;2023-11-18T15:50:21;0.45;;;0.32;;
10633;SDS011;5365;51.640;8.106;2023-11-18T15:53:21;1.23;;;0.63;;
10633;SDS011;5365;51.640;8.106;2023-11-18T15:56:22;1.08;;;0.28;;
10633;SDS011;5365;51.640;8.106;2023-11-18T15:59:22;0.20;;;0.20;;
10633;SDS011;5365;51.640;8.106;2023-11-18T16:02:25;1.25;;;0.93;;
10633;SDS011;5365;51.640;8.106;2023-11-18T16:05:26;1.13;;;0.40;;
10633;SDS011;5365;51.640;8.106;2023-11-18T16:08:26;1.35;;;0.50;;
10633;SDS011;5365;51.640;8.106;2023-11-18T16:11:27;1.25;;;0.65;;
10633;SDS011;5365;51.640;8.106;2023-11-18T16:14:27;1.07;;;0.90;;
10633;SDS011;5365;51.640;8.106;2023-11-18T16:17:27;1.23;;;0.90;;
10633;SDS011;5365;51.640;8.106;2023-11-18T16:20:28;5.43;;;0.73;;
10633;SDS011;5365;51.640;8.106;2023-11-18T16:23:32;3.97;;;1.90;;
10633;SDS011;5365;51.640;8.106;2023-11-18T16:26:34;1.80;;;1.50;;
10633;SDS011;5365;51.640;8.106;2023-11-18T16:29:35;0.97;;;0.40;;
10633;SDS011;5365;51.640;8.106;2023-11-18T16:32:35;0.50;;;0.30;;
10633;SDS011;5365;51.640;8.106;2023-11-18T16:35:36;1.00;;;0.75;;
10633;SDS011;5365;51.640;8.106;2023-11-18T16:38:36;0.10;;;0.00;;
10633;SDS011;5365;51.640;8.106;2023-11-18T16:41:36;0.87;;;0.63;;
10633;SDS011;5365;51.640;8.106;2023-11-18T16:44:36;0.63;;;0.60;;
10633;SDS011;5365;51.640;8.106;2023-11-18T16:47:37;0.50;;;0.50;;
10633;SDS011;5365;51.640;8.106;2023-11-18T16:50:39;1.33;;;0.60;;
10633;SDS011;5365;51.640;8.106;2023-11-18T16:53:39;1.35;;;0.88;;
10633;SDS011;5365;51.640;8.106;2023-11-18T16:56:40;0.63;;;0.40;;
10633;SDS011;5365;51.640;8.106;2023-11-18T16:59:40;0.50;;;0.43;;
10633;SDS011;5365;51.640;8.106;2023-11-18T17:02:51;0.90;;;0.67;;
10633;SDS011;5365;51.640;8.106;2023-11-18T17:05:54;0.30;;;0.22;;
10633;SDS011;5365;51.640;8.106;2023-11-18T17:08:54;0.00;;;0.00;;
10633;SDS011;5365;51.640;8.106;2023-11-18T17:11:55;0.60;;;0.50;;
10633;SDS011;5365;51.640;8.106;2023-11-18T17:14:55;0.40;;;0.30;;
10633;SDS011;5365;51.640;8.106;2023-11-18T17:17:56;0.70;;;0.30;;
10633;SDS011;5365;51.640;8.106;2023-11-18T17:21:02;0.20;;;0.13;;
10633;SDS011;5365;51.640;8.106;2023-11-18T17:24:03;0.47;;;0.13;;
10633;SDS011;5365;51.640;8.106;2023-11-18T17:27:03;1.23;;;0.25;;
10633;SDS011;5365;51.640;8.106;2023-11-18T17:30:04;0.07;;;0.07;;
10633;SDS011;5365;51.640;8.106;2023-11-18T17:33:05;0.50;;;0.30;;
10633;SDS011;5365;51.640;8.106;2023-11-18T17:36:05;0.13;;;0.10;;
10633;SDS011;5365;51.640;8.106;2023-11-18T17:39:06;0.50;;;0.43;;
10633;SDS011;5365;51.640;8.106;2023-11-18T17:42:06;0.10;;;0.10;;
10633;SDS011;5365;51.640;8.106;2023-11-18T17:45:07;1.23;;;0.43;;
10633;SDS011;5365;51.640;8.106;2023-11-18T17:48:07;1.15;;;0.80;;
10633;SDS011;5365;51.640;8.106;2023-11-18T17:51:08;1.10;;;0.63;;
10633;SDS011;5365;51.640;8.106;2023-11-18T17:54:09;1.97;;;0.70;;
10633;SDS011;5365;51.640;8.106;2023-11-18T17:57:09;0.93;;;0.50;;
10633;SDS011;5365;51.640;8.106;2023-11-18T18:00:11;0.57;;;0.20;;
10633;SDS011;5365;51.640;8.106;2023-11-18T18:03:12;0.75;;;0.22;;
10633;SDS011;5365;51.640;8.106;2023-11-18T18:06:12;0.70;;;0.52;;
10633;SDS011;5365;51.640;8.106;2023-11-18T18:09:12;0.93;;;0.30;;
10633;SDS011;5365;51.640;8.106;2023-11-18T18:12:13;0.80;;;0.50;;
10633;SDS011;5365;51.640;8.106;2023-11-18T18:15:13;2.17;;;0.33;;
10633;SDS011;5365;51.640;8.106;2023-11-18T18:18:13;0.60;;;0.20;;
10633;SDS011;5365;51.640;8.106;2023-11-18T18:21:14;0.93;;;0.50;;
10633;SDS011;5365;51.640;8.106;2023-11-18T18:24:14;0.10;;;0.10;;
10633;SDS011;5365;51.640;8.106;2023-11-18T18:27:14;0.27;;;0.27;;
10633;SDS011;5365;51.640;8.106;2023-11-18T18:30:14;0.10;;;0.07;;
10633;SDS011;5365;51.640;8.106;2023-11-18T18:33:16;0.98;;;0.55;;
10633;SDS011;5365;51.640;8.106;2023-11-18T18:36:16;0.13;;;0.13;;
10633;SDS011;5365;51.640;8.106;2023-11-18T18:39:16;0.07;;;0.03;;
10633;SDS011;5365;51.640;8.106;2023-11-18T18:42:17;0.40;;;0.30;;
10633;SDS011;5365;51.640;8.106;2023-11-18T18:45:17;2.70;;;0.30;;
10633;SDS011;5365;51.640;8.106;2023-11-18T18:48:20;0.00;;;0.00;;
10633;SDS011;5365;51.640;8.106;2023-11-18T18:51:20;0.20;;;0.10;;
10633;SDS011;5365;51.640;8.106;2023-11-18T18:54:22;0.20;;;0.00;;
10633;SDS011;5365;51.640;8.106;2023-11-18T18:57:22;0.90;;;0.13;;
10633;SDS011;5365;51.640;8.106;2023-11-18T19:00:24;0.10;;;0.05;;